createdAt,value
2019-04-21T00:00:15.477Z,49.40
2019-04-21T00:01:12.362Z,49.50
2019-04-21T00:02:05.960Z,49.40
2019-04-21T00:03:18.009Z,49.40
2019-04-21T00:04:37.889Z,49.50
2019-04-21T00:05:50.927Z,49.60
2019-04-21T00:06:29.673Z,49.90
2019-04-21T00:07:36.030Z,49.70
2019-04-21T00:08:55.878Z,49.80
2019-04-21T00:10:05.651Z,49.70
2019-04-21T00:10:56.186Z,49.70
2019-04-21T00:11:55.123Z,49.70
2019-04-21T00:12:40.140Z,49.90
2019-04-21T00:13:37.962Z,50.00
2019-04-21T00:14:33.599Z,49.90
2019-04-21T00:15:29.620Z,49.90
2019-04-21T00:16:34.518Z,50.10
2019-04-21T00:17:17.483Z,50.10
2019-04-21T00:18:10.864Z,50.00
2019-04-21T00:19:17.705Z,50.10
2019-04-21T00:20:26.552Z,50.30
2019-04-21T00:21:23.132Z,50.20
2019-04-21T00:22:30.008Z,50.20
2019-04-21T00:23:40.990Z,50.30
2019-04-21T00:24:33.507Z,50.20
2019-04-21T00:25:42.566Z,50.50
2019-04-21T00:26:47.984Z,50.40
2019-04-21T00:27:43.675Z,50.40
2019-04-21T00:29:03.331Z,50.50
2019-04-21T00:29:47.490Z,50.60
2019-04-21T00:30:33.858Z,50.50
2019-04-21T00:31:45.338Z,50.50
2019-04-21T00:32:31.232Z,50.50
2019-04-21T00:33:21.260Z,50.50
2019-04-21T00:34:06.701Z,50.60
2019-04-21T00:35:18.937Z,50.80
2019-04-21T00:36:18.469Z,50.80
2019-04-21T00:37:30.088Z,50.70
2019-04-21T00:39:43.193Z,50.90
2019-04-21T00:40:53.673Z,51.30
2019-04-21T00:42:48.219Z,51.10
2019-04-21T00:43:37.099Z,51.10
2019-04-21T00:44:29.125Z,51.30
2019-04-21T00:46:47.047Z,51.10
2019-04-21T00:47:45.443Z,51.10
2019-04-21T00:49:39.424Z,51.10
2019-04-21T00:51:24.788Z,51.00
2019-04-21T00:52:01.817Z,51.00
2019-04-21T00:53:04.484Z,50.90
2019-04-21T00:54:03.597Z,51.00
2019-04-21T00:55:13.848Z,51.10
2019-04-21T00:56:03.110Z,51.20
2019-04-21T00:57:02.471Z,51.60
2019-04-21T00:58:01.836Z,51.60
2019-04-21T00:58:52.985Z,51.60
2019-04-21T00:59:58.970Z,51.50
2019-04-21T01:00:50.939Z,51.60
2019-04-21T01:01:53.664Z,51.50
2019-04-21T01:02:54.901Z,51.60
2019-04-21T01:03:51.589Z,51.90
2019-04-21T01:05:04.508Z,51.80
2019-04-21T01:05:55.898Z,51.80
2019-04-21T01:07:35.670Z,51.90
2019-04-21T01:08:52.977Z,51.90
2019-04-21T01:09:42.167Z,52.10
2019-04-21T01:10:31.879Z,52.10
2019-04-21T01:11:43.813Z,52.20
2019-04-21T01:12:47.512Z,52.10
2019-04-21T01:14:03.926Z,52.20
2019-04-21T01:15:08.981Z,52.20
2019-04-21T01:15:58.939Z,52.20
2019-04-21T01:16:51.200Z,52.30
2019-04-21T01:17:55.844Z,52.40
2019-04-21T01:18:49.112Z,52.60
2019-04-21T01:19:43.719Z,52.70
2019-04-21T01:20:17.984Z,52.60
2019-04-21T01:21:14.728Z,52.80
2019-04-21T01:22:05.826Z,52.80
2019-04-21T01:23:06.745Z,52.90
2019-04-21T01:24:24.449Z,52.90
2019-04-21T01:25:25.491Z,52.90
2019-04-21T01:26:32.193Z,52.90
2019-04-21T01:27:29.315Z,52.90
2019-04-21T01:28:39.687Z,52.80
2019-04-21T01:29:45.673Z,52.80
2019-04-21T01:30:44.677Z,52.90
2019-04-21T01:31:41.463Z,52.90
2019-04-21T01:32:52.703Z,53.30
2019-04-21T01:34:44.961Z,53.10
2019-04-21T01:35:47.776Z,53.10
2019-04-21T01:36:44.419Z,53.10
2019-04-21T01:37:55.571Z,53.30
2019-04-21T01:38:53.562Z,53.40
2019-04-21T01:39:59.902Z,53.40
2019-04-21T01:42:03.029Z,53.20
2019-04-21T01:42:50.631Z,53.20
2019-04-21T01:44:52.120Z,53.30
2019-04-21T01:45:43.309Z,53.20
2019-04-21T01:46:45.289Z,53.10
2019-04-21T01:47:50.508Z,53.10
2019-04-21T01:48:34.025Z,53.00
2019-04-21T01:49:36.648Z,53.20
2019-04-21T01:50:40.766Z,53.20
2019-04-21T01:51:50.438Z,53.20
2019-04-21T01:53:01.803Z,53.20
2019-04-21T01:53:54.677Z,53.20
2019-04-21T01:56:50.892Z,53.60
2019-04-21T01:57:42.343Z,53.40
2019-04-21T01:58:33.096Z,53.50
2019-04-21T01:59:26.699Z,53.60
2019-04-21T02:01:52.041Z,53.40
2019-04-21T02:02:54.011Z,53.40
2019-04-21T02:03:59.545Z,53.30
2019-04-21T02:05:02.950Z,53.40
2019-04-21T02:06:50.055Z,53.40
2019-04-21T02:07:48.987Z,53.30
2019-04-21T02:08:41.288Z,53.50
2019-04-21T02:09:49.074Z,53.70
2019-04-21T02:10:59.724Z,53.60
2019-04-21T02:11:59.843Z,53.70
2019-04-21T02:12:56.363Z,53.70
2019-04-21T02:14:58.016Z,53.70
2019-04-21T02:16:46.474Z,53.70
2019-04-21T02:17:46.812Z,53.60
2019-04-21T02:18:38.809Z,53.80
2019-04-21T02:19:40.895Z,53.60
2019-04-21T02:20:31.596Z,53.60
2019-04-21T02:21:37.784Z,53.50
2019-04-21T02:22:57.216Z,53.60
2019-04-21T02:25:00.823Z,53.70
2019-04-21T02:25:57.187Z,53.60
2019-04-21T02:26:45.499Z,53.60
2019-04-21T02:27:35.890Z,54.10
2019-04-21T02:28:55.129Z,54.20
2019-04-21T02:32:08.687Z,54.70
2019-04-21T02:34:12.881Z,54.50
2019-04-21T02:36:22.469Z,54.70
2019-04-21T02:37:26.839Z,54.70
2019-04-21T02:38:29.514Z,54.80
2019-04-21T02:39:48.695Z,54.90
2019-04-21T02:41:12.576Z,54.90
2019-04-21T02:42:07.625Z,54.70
2019-04-21T02:43:18.425Z,54.70
2019-04-21T02:44:07.949Z,54.70
2019-04-21T02:44:42.663Z,54.70
2019-04-21T02:45:46.394Z,54.70
2019-04-21T02:47:16.362Z,54.70
2019-04-21T02:48:27.620Z,54.80
2019-04-21T02:49:12.808Z,54.80
2019-04-21T02:49:59.315Z,55.00
2019-04-21T02:50:57.200Z,54.90
2019-04-21T02:51:52.299Z,55.20
2019-04-21T02:52:43.203Z,55.10
2019-04-21T02:54:31.246Z,55.10
2019-04-21T02:55:21.780Z,55.30
2019-04-21T02:55:36.079Z,55.40
2019-04-21T02:57:41.037Z,55.40
2019-04-21T02:59:22.502Z,55.30
2019-04-21T02:59:49.222Z,55.30
2019-04-21T03:01:23.281Z,55.30
2019-04-21T03:02:24.413Z,55.30
2019-04-21T03:03:12.803Z,55.20
2019-04-21T03:04:18.288Z,55.20
2019-04-21T03:04:51.640Z,55.20
2019-04-21T03:05:50.301Z,55.20
2019-04-21T03:06:50.071Z,55.20
2019-04-21T03:08:33.483Z,55.00
2019-04-21T03:09:17.326Z,54.90
2019-04-21T03:09:57.304Z,54.80
2019-04-21T03:10:43.036Z,54.80
2019-04-21T03:12:21.885Z,54.90
2019-04-21T03:13:13.595Z,55.00
2019-04-21T03:14:26.755Z,55.20
2019-04-21T03:15:20.609Z,55.20
2019-04-21T03:15:58.934Z,55.10
2019-04-21T03:16:39.709Z,55.20
2019-04-21T03:18:32.346Z,55.30
2019-04-21T03:19:26.997Z,55.30
2019-04-21T03:21:15.257Z,55.40
2019-04-21T03:21:47.949Z,55.40
2019-04-21T03:23:18.669Z,55.50
2019-04-21T03:24:28.795Z,55.40
2019-04-21T03:25:40.757Z,55.60
2019-04-21T03:26:26.967Z,55.90
2019-04-21T03:26:58.810Z,55.80
2019-04-21T03:27:56.590Z,55.80
2019-04-21T03:29:11.582Z,55.60
2019-04-21T03:30:25.629Z,55.60
2019-04-21T03:31:17.862Z,55.70
2019-04-21T03:36:46.986Z,55.70
2019-04-21T03:37:15.556Z,55.60
2019-04-21T03:38:14.570Z,55.60
2019-04-21T03:39:00.616Z,55.70
2019-04-21T03:39:58.995Z,56.00
2019-04-21T03:40:39.181Z,56.00
2019-04-21T03:42:25.024Z,56.40
2019-04-21T03:43:19.875Z,56.30
2019-04-21T03:43:58.685Z,56.40
2019-04-21T03:46:05.649Z,56.50
2019-04-21T03:46:47.029Z,56.50
2019-04-21T03:48:07.217Z,56.40
2019-04-21T03:51:02.505Z,56.40
2019-04-21T03:52:02.802Z,56.40
2019-04-21T03:53:36.234Z,56.70
2019-04-21T03:56:50.742Z,56.60
2019-04-21T03:57:08.558Z,56.50
2019-04-21T03:58:14.651Z,56.50
2019-04-21T03:59:15.881Z,56.60
2019-04-21T04:00:20.558Z,56.40
2019-04-21T04:01:21.393Z,56.50
2019-04-21T04:01:57.353Z,56.50
2019-04-21T04:04:13.173Z,56.50
2019-04-21T04:05:19.473Z,56.60
2019-04-21T04:06:18.948Z,56.60
2019-04-21T04:07:10.479Z,56.60
2019-04-21T04:08:20.256Z,56.90
2019-04-21T04:09:09.003Z,57.00
2019-04-21T04:09:51.648Z,57.00
2019-04-21T04:11:19.311Z,57.00
2019-04-21T04:13:13.365Z,57.00
2019-04-21T04:14:30.547Z,57.00
2019-04-21T04:15:11.499Z,57.10
2019-04-21T04:16:09.914Z,57.10
2019-04-21T04:17:11.392Z,57.10
2019-04-21T04:18:16.175Z,57.00
2019-04-21T04:19:26.118Z,57.30
2019-04-21T04:19:53.343Z,57.30
2019-04-21T04:21:18.585Z,57.30
2019-04-21T04:22:19.217Z,57.20
2019-04-21T04:23:07.615Z,57.10
2019-04-21T04:24:21.393Z,57.10
2019-04-21T04:25:17.329Z,57.20
2019-04-21T04:26:12.819Z,6.00
2019-04-21T04:28:37.967Z,57.40
2019-04-21T04:28:54.010Z,57.50
2019-04-21T04:30:12.167Z,57.80
2019-04-21T04:31:24.030Z,57.90
2019-04-21T04:31:47.261Z,58.00
2019-04-21T04:33:20.026Z,58.10
2019-04-21T04:33:54.906Z,58.30
2019-04-21T04:35:20.933Z,58.20
2019-04-21T04:36:33.161Z,58.20
2019-04-21T04:37:04.931Z,58.20
2019-04-21T04:38:22.049Z,58.20
2019-04-21T04:39:25.357Z,58.20
2019-04-21T04:40:09.010Z,58.20
2019-04-21T04:41:24.250Z,58.50
2019-04-21T04:42:29.567Z,58.60
2019-04-21T04:43:18.483Z,58.50
2019-04-21T04:44:22.433Z,58.40
2019-04-21T04:45:30.305Z,58.40
2019-04-21T04:46:17.498Z,58.40
2019-04-21T04:47:22.574Z,58.40
2019-04-21T04:48:10.665Z,58.30
2019-04-21T04:49:01.518Z,58.30
2019-04-21T04:50:19.460Z,58.30
2019-04-21T04:51:22.676Z,58.30
2019-04-21T04:52:50.981Z,58.30
2019-04-21T04:54:01.462Z,58.20
2019-04-21T04:55:18.279Z,58.00
2019-04-21T04:56:17.909Z,57.80
2019-04-21T04:57:13.659Z,57.80
2019-04-21T04:58:06.586Z,57.40
2019-04-21T04:59:58.056Z,57.20
2019-04-21T05:00:17.909Z,56.80
2019-04-21T05:01:21.138Z,56.60
2019-04-21T05:02:27.478Z,56.50
2019-04-21T05:02:55.769Z,56.30
2019-04-21T05:04:15.299Z,55.90
2019-04-21T05:06:33.978Z,54.90
2019-04-21T05:07:20.986Z,54.90
2019-04-21T05:10:03.684Z,54.60
2019-04-21T05:10:56.589Z,54.40
2019-04-21T05:11:48.238Z,54.20
2019-04-21T05:13:05.842Z,53.80
2019-04-21T05:14:06.038Z,53.60
2019-04-21T05:15:07.233Z,53.40
2019-04-21T05:15:49.786Z,53.10
2019-04-21T05:17:13.815Z,52.80
2019-04-21T05:18:04.419Z,52.50
2019-04-21T05:19:14.440Z,52.30
2019-04-21T05:20:11.073Z,52.00
2019-04-21T05:21:12.217Z,51.80
2019-04-21T05:22:10.873Z,51.60
2019-04-21T05:22:57.906Z,50.80
2019-04-21T05:23:46.677Z,50.80
2019-04-21T05:24:43.827Z,50.30
2019-04-21T05:25:41.401Z,50.00
2019-04-21T05:26:36.999Z,49.90
2019-04-21T05:27:37.838Z,49.70
2019-04-21T05:28:32.409Z,49.50
2019-04-21T05:29:37.353Z,49.30
2019-04-21T05:31:03.497Z,49.10
2019-04-21T05:32:00.227Z,48.60
2019-04-21T05:32:59.744Z,48.60
2019-04-21T05:34:50.164Z,48.10
2019-04-21T05:35:48.766Z,48.20
2019-04-21T05:36:50.109Z,48.10
2019-04-21T05:37:42.764Z,48.10
2019-04-21T05:38:41.606Z,48.00
2019-04-21T05:39:41.810Z,47.90
2019-04-21T05:40:35.291Z,47.60
2019-04-21T05:41:29.301Z,47.30
2019-04-21T05:42:39.434Z,47.00
2019-04-21T05:45:07.042Z,46.10
2019-04-21T05:45:57.749Z,45.90
2019-04-21T05:46:31.292Z,45.60
2019-04-21T05:48:11.465Z,45.20
2019-04-21T05:48:51.690Z,45.10
2019-04-21T05:49:55.145Z,44.60
2019-04-21T05:50:43.948Z,44.30
2019-04-21T05:51:43.860Z,43.90
2019-04-21T05:52:40.561Z,43.90
2019-04-21T05:53:46.565Z,43.80
2019-04-21T05:54:43.861Z,43.40
2019-04-21T05:55:56.045Z,43.40
2019-04-21T05:56:48.344Z,42.90
2019-04-21T05:57:54.003Z,42.50
2019-04-21T05:58:47.827Z,42.50
2019-04-21T05:59:52.990Z,42.20
2019-04-21T06:01:23.614Z,41.90
2019-04-21T06:02:57.507Z,41.80
2019-04-21T06:03:56.857Z,41.50
2019-04-21T06:06:13.369Z,41.10
2019-04-21T06:06:39.031Z,41.20
2019-04-21T06:08:00.195Z,41.10
2019-04-21T06:08:47.660Z,40.80
2019-04-21T06:09:34.720Z,40.40
2019-04-21T06:10:59.982Z,40.40
2019-04-21T06:11:30.208Z,40.10
2019-04-21T06:12:59.042Z,39.90
2019-04-21T06:14:07.476Z,39.40
2019-04-21T06:15:00.777Z,39.40
2019-04-21T06:15:55.940Z,39.40
2019-04-21T06:17:01.347Z,39.10
2019-04-21T06:17:42.663Z,39.10
2019-04-21T06:18:57.865Z,39.00
2019-04-21T06:20:04.504Z,38.90
2019-04-21T06:20:59.250Z,38.80
2019-04-21T06:21:50.679Z,38.30
2019-04-21T06:22:50.227Z,38.30
2019-04-21T06:25:30.739Z,37.90
2019-04-21T06:26:01.743Z,38.00
2019-04-21T06:26:58.959Z,37.90
2019-04-21T06:27:37.572Z,37.70
2019-04-21T06:29:02.603Z,37.50
2019-04-21T06:29:53.839Z,37.50
2019-04-21T06:31:11.010Z,37.30
2019-04-21T06:32:30.166Z,37.30
2019-04-21T06:32:48.933Z,37.30
2019-04-21T06:33:57.275Z,37.20
2019-04-21T06:35:19.306Z,37.10
2019-04-21T06:37:21.264Z,36.70
2019-04-21T06:37:56.295Z,36.70
2019-04-21T06:38:42.967Z,36.50
2019-04-21T06:40:14.088Z,36.50
2019-04-21T06:41:58.291Z,36.20
2019-04-21T06:46:08.536Z,36.40
2019-04-21T06:46:39.113Z,36.10
2019-04-21T06:48:04.017Z,36.00
2019-04-21T06:48:54.885Z,35.90
2019-04-21T06:49:53.503Z,35.80
2019-04-21T06:50:58.972Z,36.00
2019-04-21T06:51:46.663Z,35.40
2019-04-21T06:52:53.593Z,35.40
2019-04-21T06:53:37.401Z,35.30
2019-04-21T06:55:02.316Z,35.30
2019-04-21T06:55:43.293Z,35.40
2019-04-21T06:56:56.021Z,35.20
2019-04-21T06:57:51.327Z,35.00
2019-04-21T06:58:50.091Z,35.00
2019-04-21T06:59:42.929Z,34.90
2019-04-21T07:00:46.761Z,34.80
2019-04-21T07:02:08.003Z,34.80
2019-04-21T07:03:01.039Z,35.00
2019-04-21T07:03:56.756Z,35.20
2019-04-21T07:06:07.662Z,35.00
2019-04-21T07:07:04.416Z,34.90
2019-04-21T07:08:14.555Z,34.90
2019-04-21T07:09:42.548Z,34.60
2019-04-21T07:10:55.766Z,34.60
2019-04-21T07:12:44.700Z,34.60
2019-04-21T07:13:54.469Z,34.60
2019-04-21T07:15:03.124Z,34.60
2019-04-21T07:16:03.881Z,34.50
2019-04-21T07:17:04.905Z,34.50
2019-04-21T07:17:57.625Z,34.70
2019-04-21T07:20:27.879Z,34.60
2019-04-21T07:21:50.857Z,34.70
2019-04-21T07:22:54.003Z,34.50
2019-04-21T07:25:02.206Z,34.00
2019-04-21T07:25:57.781Z,34.00
2019-04-21T07:27:46.466Z,34.00
2019-04-21T07:29:01.533Z,33.80
2019-04-21T07:29:47.249Z,33.80
2019-04-21T07:33:00.757Z,33.60
2019-04-21T07:34:13.717Z,33.20
2019-04-21T07:34:44.513Z,33.60
2019-04-21T07:35:55.289Z,33.90
2019-04-21T07:36:57.689Z,33.90
2019-04-21T07:37:57.541Z,33.40
2019-04-21T07:38:55.259Z,33.30
2019-04-21T07:39:49.199Z,33.30
2019-04-21T07:41:43.613Z,33.00
2019-04-21T07:42:37.821Z,32.90
2019-04-21T07:43:37.873Z,33.20
2019-04-21T07:44:45.846Z,33.20
2019-04-21T07:45:39.961Z,32.80
2019-04-21T07:46:33.571Z,32.70
2019-04-21T07:48:49.063Z,32.00
2019-04-21T07:50:00.105Z,31.50
2019-04-21T07:50:51.188Z,31.50
2019-04-21T07:51:31.371Z,31.30
2019-04-21T07:52:53.037Z,31.30
2019-04-21T07:53:33.258Z,31.70
2019-04-21T07:55:05.302Z,31.30
2019-04-21T07:56:32.899Z,31.70
2019-04-21T07:57:41.432Z,31.70
2019-04-21T07:58:57.161Z,31.30
2019-04-21T08:00:05.723Z,5.50
2019-04-21T08:01:54.701Z,31.20
2019-04-21T08:02:48.924Z,31.20
2019-04-21T08:05:12.846Z,30.70
2019-04-21T08:07:57.674Z,30.30
2019-04-21T08:10:37.623Z,30.10
2019-04-21T08:11:41.489Z,30.20
2019-04-21T08:12:41.786Z,30.20
2019-04-21T08:13:56.022Z,30.10
2019-04-21T08:14:57.255Z,30.10
2019-04-21T08:15:50.603Z,29.50
2019-04-21T08:17:53.213Z,29.80
2019-04-21T08:19:48.548Z,29.90
2019-04-21T08:20:47.630Z,30.30
2019-04-21T08:21:49.483Z,30.10
2019-04-21T08:22:50.822Z,29.20
2019-04-21T08:24:55.990Z,29.30
2019-04-21T08:26:04.379Z,29.80
2019-04-21T08:26:49.435Z,30.00
2019-04-21T08:27:53.722Z,30.00
2019-04-21T08:28:51.943Z,29.50
2019-04-21T08:29:57.848Z,29.20
2019-04-21T08:30:30.177Z,29.30
2019-04-21T08:32:02.450Z,29.30
2019-04-21T08:33:15.797Z,29.30
2019-04-21T08:36:10.836Z,30.10
2019-04-21T08:36:50.757Z,30.30
2019-04-21T08:37:47.962Z,30.10
2019-04-21T08:38:47.724Z,30.30
2019-04-21T08:40:55.677Z,30.00
2019-04-21T08:41:49.477Z,29.60
2019-04-21T08:42:50.657Z,29.30
2019-04-21T08:43:55.827Z,29.30
2019-04-21T08:44:52.222Z,30.30
2019-04-21T08:45:52.269Z,30.20
2019-04-21T08:47:45.619Z,29.70
2019-04-21T08:48:41.883Z,30.10
2019-04-21T08:49:53.446Z,30.00
2019-04-21T08:50:49.334Z,30.00
2019-04-21T08:52:00.477Z,29.70
2019-04-21T08:53:53.088Z,29.50
2019-04-21T08:56:27.070Z,29.00
2019-04-21T08:58:07.888Z,29.60
2019-04-21T08:58:33.862Z,29.60
2019-04-21T08:59:50.455Z,29.60
2019-04-21T09:00:46.614Z,28.00
2019-04-21T09:01:55.087Z,28.40
2019-04-21T09:02:46.243Z,28.40
2019-04-21T09:03:49.027Z,28.70
2019-04-21T09:04:45.668Z,29.00
2019-04-21T09:05:49.162Z,29.00
2019-04-21T09:07:04.351Z,28.80
2019-04-21T09:07:31.888Z,28.20
2019-04-21T09:09:51.438Z,28.30
2019-04-21T09:10:46.614Z,28.40
2019-04-21T09:11:28.262Z,28.60
2019-04-21T09:13:29.454Z,28.50
2019-04-21T09:14:41.293Z,28.50
2019-04-21T09:15:47.023Z,28.10
2019-04-21T09:16:45.802Z,27.60
2019-04-21T09:17:36.413Z,27.60
2019-04-21T09:18:44.547Z,28.10
2019-04-21T09:19:56.262Z,28.10
2019-04-21T09:21:49.773Z,28.00
2019-04-21T09:22:47.550Z,28.00
2019-04-21T09:23:38.077Z,27.80
2019-04-21T09:24:45.233Z,27.60
2019-04-21T09:26:45.849Z,27.20
2019-04-21T09:27:46.567Z,27.30
2019-04-21T09:29:30.799Z,27.20
2019-04-21T09:30:08.820Z,27.70
2019-04-21T09:31:08.572Z,27.10
2019-04-21T09:32:16.503Z,26.80
2019-04-21T09:33:07.461Z,26.90
2019-04-21T09:34:10.343Z,26.00
2019-04-21T09:35:14.897Z,25.80
2019-04-21T09:36:15.145Z,25.70
2019-04-21T09:37:28.524Z,25.30
2019-04-21T09:38:29.695Z,25.20
2019-04-21T09:39:18.008Z,25.20
2019-04-21T09:40:07.182Z,25.40
2019-04-21T09:41:16.042Z,25.70
2019-04-21T09:42:06.987Z,26.20
2019-04-21T09:43:13.056Z,25.80
2019-04-21T09:44:21.990Z,25.20
2019-04-21T09:45:10.461Z,24.90
2019-04-21T09:46:11.478Z,24.80
2019-04-21T09:47:10.372Z,24.80
2019-04-21T09:48:16.770Z,24.30
2019-04-21T09:49:13.579Z,22.30
2019-04-21T09:50:08.488Z,22.30
2019-04-21T09:51:11.532Z,22.20
2019-04-21T09:52:23.694Z,22.20
2019-04-21T09:53:26.785Z,22.20
2019-04-21T09:54:17.292Z,22.00
2019-04-21T09:55:17.789Z,21.70
2019-04-21T09:56:16.556Z,21.60
2019-04-21T09:57:25.940Z,21.60
2019-04-21T09:58:23.730Z,21.70
2019-04-21T09:59:23.505Z,22.20
2019-04-21T10:00:20.992Z,21.60
2019-04-21T10:01:25.785Z,21.30
2019-04-21T10:02:19.754Z,22.00
2019-04-21T10:03:12.361Z,21.90
2019-04-21T10:04:07.349Z,20.70
2019-04-21T10:05:05.741Z,20.90
2019-04-21T10:06:09.090Z,21.80
2019-04-21T10:07:05.279Z,21.80
2019-04-21T10:08:08.517Z,21.80
2019-04-21T10:09:14.729Z,21.90
2019-04-21T10:10:06.344Z,21.90
2019-04-21T10:11:05.753Z,22.10
2019-04-21T10:12:07.249Z,22.50
2019-04-21T10:13:06.973Z,22.20
2019-04-21T10:14:10.114Z,21.80
2019-04-21T10:15:11.099Z,21.90
2019-04-21T10:16:07.786Z,20.80
2019-04-21T10:17:06.026Z,20.80
2019-04-21T10:18:06.760Z,21.40
2019-04-21T10:19:11.567Z,21.80
2019-04-21T10:20:05.557Z,21.80
2019-04-21T10:21:05.890Z,21.80
2019-04-21T10:22:06.441Z,21.30
2019-04-21T10:23:07.135Z,21.00
2019-04-21T10:24:10.962Z,21.10
2019-04-21T10:25:05.152Z,21.00
2019-04-21T10:26:06.706Z,20.70
2019-04-21T10:27:09.033Z,20.70
2019-04-21T10:28:05.737Z,20.60
2019-04-21T10:29:16.883Z,20.70
2019-04-21T10:30:06.117Z,20.20
2019-04-21T10:31:05.377Z,20.80
2019-04-21T10:32:06.202Z,20.30
2019-04-21T10:33:08.775Z,20.80
2019-04-21T10:34:07.068Z,20.80
2019-04-21T10:35:05.864Z,20.20
2019-04-21T10:36:07.225Z,19.60
2019-04-21T10:37:05.461Z,19.60
2019-04-21T10:38:27.757Z,19.70
2019-04-21T10:39:14.071Z,20.30
2019-04-21T10:40:05.765Z,20.30
2019-04-21T10:41:19.321Z,20.00
2019-04-21T10:42:22.032Z,20.00
2019-04-21T10:43:22.207Z,20.00
2019-04-21T10:44:16.971Z,19.90
2019-04-21T10:45:18.985Z,20.00
2019-04-21T10:46:38.131Z,20.40
2019-04-21T10:47:29.476Z,20.20
2019-04-21T10:48:23.079Z,20.20
2019-04-21T10:49:18.964Z,20.40
2019-04-21T10:50:28.727Z,20.10
2019-04-21T10:51:32.788Z,20.10
2019-04-21T10:52:35.907Z,19.90
2019-04-21T10:53:14.561Z,20.00
2019-04-21T10:54:48.926Z,20.10
2019-04-21T10:55:39.914Z,20.10
2019-04-21T10:56:36.253Z,19.80
2019-04-21T10:57:14.492Z,19.80
2019-04-21T10:58:28.906Z,20.10
2019-04-21T10:59:26.835Z,20.20
2019-04-21T11:00:15.898Z,20.20
2019-04-21T11:01:18.930Z,20.10
2019-04-21T11:02:28.844Z,20.00
2019-04-21T11:03:29.275Z,20.00
2019-04-21T11:04:31.163Z,20.00
2019-04-21T11:05:27.757Z,20.30
2019-04-21T11:06:30.904Z,20.20
2019-04-21T11:07:30.119Z,20.60
2019-04-21T11:08:35.548Z,20.60
2019-04-21T11:09:35.988Z,20.00
2019-04-21T11:10:18.376Z,19.90
2019-04-21T11:11:06.134Z,19.90
2019-04-21T11:12:10.055Z,19.90
2019-04-21T11:13:28.356Z,19.80
2019-04-21T11:14:13.745Z,19.70
2019-04-21T11:15:14.921Z,19.80
2019-04-21T11:16:24.751Z,19.80
2019-04-21T11:17:16.407Z,19.50
2019-04-21T11:18:19.820Z,19.30
2019-04-21T11:19:32.736Z,19.30
2019-04-21T11:20:20.752Z,19.30
2019-04-21T11:21:21.173Z,19.20
2019-04-21T11:22:16.727Z,18.70
2019-04-21T11:23:19.618Z,19.50
2019-04-21T11:24:22.996Z,19.70
2019-04-21T11:25:12.932Z,19.50
2019-04-21T11:26:20.137Z,19.50
2019-04-21T11:27:15.732Z,19.50
2019-04-21T11:28:21.047Z,19.90
2019-04-21T11:29:17.007Z,19.90
2019-04-21T11:30:13.742Z,20.10
2019-04-21T11:31:18.763Z,19.80
2019-04-21T11:32:25.437Z,19.70
2019-04-21T11:33:11.146Z,19.70
2019-04-21T11:34:16.311Z,20.00
2019-04-21T11:35:13.094Z,19.80
2019-04-21T11:36:41.724Z,19.70
2019-04-21T11:37:30.329Z,19.70
2019-04-21T11:38:31.858Z,19.60
2019-04-21T11:39:45.464Z,18.90
2019-04-21T11:40:21.353Z,18.90
2019-04-21T11:41:19.918Z,18.60
2019-04-21T11:42:24.064Z,18.20
2019-04-21T11:43:28.668Z,18.20
2019-04-21T11:44:16.327Z,18.20
2019-04-21T11:45:12.486Z,18.30
2019-04-21T11:46:26.822Z,18.10
2019-04-21T11:47:16.534Z,18.00
2019-04-21T11:48:16.728Z,18.00
2019-04-21T11:49:30.567Z,18.30
2019-04-21T11:50:30.797Z,17.90
2019-04-21T11:51:28.877Z,17.90
2019-04-21T11:52:13.346Z,18.30
2019-04-21T11:53:32.546Z,17.60
2019-04-21T11:54:44.626Z,18.00
2019-04-21T11:55:14.319Z,18.00
2019-04-21T11:56:14.805Z,18.10
2019-04-21T11:57:27.968Z,18.10
2019-04-21T11:58:28.333Z,18.40
2019-04-21T11:59:12.516Z,18.40
2019-04-21T12:00:11.456Z,18.00
2019-04-21T12:01:25.572Z,18.30
2019-04-21T12:02:15.459Z,18.30
2019-04-21T12:03:22.129Z,18.20
2019-04-21T12:04:21.174Z,16.80
2019-04-21T12:05:23.588Z,17.20
2019-04-21T12:06:41.264Z,17.40
2019-04-21T12:07:13.468Z,17.40
2019-04-21T12:08:39.057Z,17.70
2019-04-21T12:09:29.265Z,17.20
2019-04-21T12:10:25.083Z,17.20
2019-04-21T12:11:17.908Z,17.30
2019-04-21T12:12:35.124Z,17.20
2019-04-21T12:13:14.047Z,4.40
2019-04-21T12:14:34.140Z,17.90
2019-04-21T12:15:16.683Z,17.80
2019-04-21T12:16:17.086Z,17.60
2019-04-21T12:17:12.090Z,17.70
2019-04-21T12:18:36.712Z,17.80
2019-04-21T12:19:20.841Z,17.70
2019-04-21T12:20:26.402Z,17.80
2019-04-21T12:21:39.415Z,17.90
2019-04-21T12:22:28.567Z,17.90
2019-04-21T12:23:18.305Z,17.80
2019-04-21T12:24:13.437Z,18.20
2019-04-21T12:25:29.334Z,18.20
2019-04-21T12:26:28.621Z,18.30
2019-04-21T12:27:18.519Z,18.30
2019-04-21T12:28:28.029Z,18.70
2019-04-21T12:29:28.985Z,18.50
2019-04-21T12:30:13.861Z,18.40
2019-04-21T12:31:13.770Z,18.40
2019-04-21T12:32:22.194Z,18.30
2019-04-21T12:33:36.208Z,18.00
2019-04-21T12:34:16.147Z,17.80
2019-04-21T12:35:28.073Z,17.50
2019-04-21T12:36:21.885Z,17.70
2019-04-21T12:37:24.684Z,17.90
2019-04-21T12:38:14.789Z,17.90
2019-04-21T12:39:25.066Z,18.30
2019-04-21T12:40:14.387Z,18.30
2019-04-21T12:41:40.826Z,18.30
2019-04-21T12:42:30.265Z,18.50
2019-04-21T12:43:06.855Z,18.50
2019-04-21T12:44:16.297Z,18.70
2019-04-21T12:45:13.369Z,18.70
2019-04-21T12:46:25.861Z,18.90
2019-04-21T12:47:27.930Z,18.90
2019-04-21T12:48:13.786Z,18.80
2019-04-21T12:49:14.252Z,18.40
2019-04-21T12:50:18.680Z,18.60
2019-04-21T12:52:17.692Z,18.80
2019-04-21T12:53:19.054Z,18.80
2019-04-21T12:54:19.625Z,19.50
2019-04-21T12:55:36.927Z,18.90
2019-04-21T12:56:23.386Z,18.90
2019-04-21T12:57:21.461Z,18.80
2019-04-21T12:58:15.253Z,18.90
2019-04-21T12:59:15.090Z,19.00
2019-04-21T13:00:20.703Z,19.20
2019-04-21T13:01:09.185Z,19.20
2019-04-21T13:02:15.922Z,19.30
2019-04-21T13:03:11.946Z,19.70
2019-04-21T13:04:13.478Z,19.80
2019-04-21T13:05:31.932Z,19.00
2019-04-21T13:06:14.038Z,19.00
2019-04-21T13:07:23.521Z,19.00
2019-04-21T13:08:21.709Z,18.90
2019-04-21T13:09:24.204Z,18.70
2019-04-21T13:10:33.933Z,19.00
2019-04-21T13:11:17.492Z,19.00
2019-04-21T13:12:13.454Z,19.10
2019-04-21T13:13:18.577Z,19.00
2019-04-21T13:14:19.903Z,19.00
2019-04-21T13:15:33.979Z,19.10
2019-04-21T13:16:25.299Z,19.10
2019-04-21T13:17:54.603Z,19.20
2019-04-21T13:18:18.369Z,19.10
2019-04-21T13:19:21.031Z,19.20
2019-04-21T13:20:17.014Z,18.90
2019-04-21T13:21:28.242Z,19.00
2019-04-21T13:22:34.157Z,18.70
2019-04-21T13:23:18.811Z,18.70
2019-04-21T13:24:31.759Z,19.00
2019-04-21T13:25:31.669Z,19.10
2019-04-21T13:26:29.451Z,19.10
2019-04-21T13:27:30.806Z,19.20
2019-04-21T13:28:22.768Z,19.40
2019-04-21T13:29:22.171Z,19.50
2019-04-21T13:30:20.114Z,19.40
2019-04-21T13:31:22.338Z,19.40
2019-04-21T13:32:27.236Z,19.60
2019-04-21T13:33:20.962Z,19.50
2019-04-21T13:34:19.992Z,19.30
2019-04-21T13:35:14.760Z,19.30
2019-04-21T13:36:13.840Z,19.30
2019-04-21T13:37:26.007Z,19.60
2019-04-21T13:38:35.098Z,19.60
2019-04-21T13:40:07.349Z,19.10
2019-04-21T13:41:08.662Z,18.90
2019-04-21T13:41:49.120Z,18.90
2019-04-21T13:42:46.513Z,19.20
2019-04-21T13:43:21.035Z,19.20
2019-04-21T13:44:23.402Z,19.10
2019-04-21T13:45:21.766Z,19.30
2019-04-21T13:46:18.166Z,19.30
2019-04-21T13:47:20.761Z,19.30
2019-04-21T13:48:16.933Z,19.30
2019-04-21T13:49:09.173Z,19.30
2019-04-21T13:50:13.122Z,19.50
2019-04-21T13:51:09.519Z,18.60
2019-04-21T13:52:12.719Z,19.00
2019-04-21T13:53:06.560Z,19.00
2019-04-21T13:54:07.264Z,19.00
2019-04-21T13:55:05.916Z,19.10
2019-04-21T13:56:06.677Z,19.40
2019-04-21T13:57:10.333Z,20.00
2019-04-21T13:58:06.724Z,19.90
2019-04-21T13:59:08.122Z,19.80
2019-04-21T14:00:06.190Z,19.60
2019-04-21T14:01:07.552Z,19.10
2019-04-21T14:02:08.811Z,19.10
2019-04-21T14:03:07.500Z,19.20
2019-04-21T14:04:05.712Z,19.00
2019-04-21T14:05:10.378Z,19.30
2019-04-21T14:06:08.261Z,19.20
2019-04-21T14:07:06.431Z,19.10
2019-04-21T14:08:07.088Z,19.00
2019-04-21T14:09:05.660Z,19.00
2019-04-21T14:10:11.984Z,19.10
2019-04-21T14:11:05.512Z,19.10
2019-04-21T14:12:05.824Z,19.20
2019-04-21T14:13:06.602Z,18.60
2019-04-21T14:14:06.507Z,19.00